Time;durP1;ratioP1;P1;durP2;ratioP2;P2;SDS_P1;SDS_P2;PMS_P1;PMS_P2;Temp;Humidity;BMP_temperature;BMP_pressure;BME280_temperature;BME280_humidity;BME280_pressure;Samples;Min_cycle;Max_cycle;Signal;HPM_P1;HPM_P2
2022/10/20 00:01:13;;;;;;;;;;;;;;;10.34;57.24;100433.03;4352746;32;34082;-83
2022/10/20 00:03:44;;;;;;;;;;;;;;;10.38;57.07;100430.44;4357273;32;34756;-84
2022/10/20 00:06:14;;;;;;;;;;;;;;;10.37;57.18;100430.47;4349367;32;33949;-87
2022/10/20 00:08:44;;;;;;;;;;;;;;;10.34;57.28;100428.75;4349916;32;32863;-85
2022/10/20 00:11:13;;;;;;;;;;;;;;;10.13;57.89;100433.91;4357066;32;33431;-84
2022/10/20 00:13:44;;;;;;;;;;;;;;;10.22;57.59;100428.69;4357170;32;33418;-84
2022/10/20 00:16:14;;;;;;;;;;;;;;;10.24;57.54;100433.03;4352285;32;35387;-85
2022/10/20 00:18:51;;;;;;;;;;;;;;;10.31;57.35;100433.06;4353179;32;32672;-84
2022/10/20 00:21:21;;;;;;;;;;;;;;;10.33;57.12;100437.37;4357213;32;34454;-83
2022/10/20 00:23:54;;;;;;;;;;;;;;;10.29;57.46;100434.78;4354507;32;34106;-86
2022/10/20 00:26:24;;;;;;;;;;;;;;;10.30;57.32;100441.72;4358477;32;33447;-85
2022/10/20 00:28:53;;;;;;;;;;;;;;;10.29;57.26;100440.81;4340553;32;33328;-85
2022/10/20 00:31:22;;;;;;;;;;;;;;;10.13;57.69;100446.84;4340928;33;33962;-86
2022/10/20 00:33:55;;;;;;;;;;;;;;;10.20;57.63;100452.03;4352651;32;34253;-84
2022/10/20 00:36:23;;;;;;;;;;;;;;;10.22;57.48;100444.25;4355677;32;33607;-83
2022/10/20 00:38:58;;;;;;;;;;;;;;;10.20;57.57;100446.84;4358909;32;33672;-84
2022/10/20 00:41:27;;;;;;;;;;;;;;;10.30;57.20;100449.50;4348607;32;34220;-87
2022/10/20 00:43:59;;;;;;;;;;;;;;;10.15;57.69;100451.19;4354430;32;33992;-83
2022/10/20 00:46:28;;;;;;;;;;;;;;;10.13;57.76;100445.12;4353103;32;33921;-83
2022/10/20 00:49:06;;;;;;;;;;;;;;;10.21;57.49;100448.56;4362573;32;32746;-86
2022/10/20 00:51:35;;;;;;;;;;;;;;;10.18;57.65;100455.50;4357781;32;34210;-84
2022/10/20 00:54:08;;;;;;;;;;;;;;;10.00;57.97;100453.75;4358361;32;34288;-83
2022/10/20 00:56:37;;;;;;;;;;;;;;;10.00;57.92;100457.22;4353851;32;33696;-84
2022/10/20 00:59:08;;;;;;;;;;;;;;;9.83;58.64;100454.59;4355350;32;32727;-83
2022/10/20 01:01:37;;;;;;;;;;;;;;;9.97;58.27;100456.34;4357889;32;33976;-84
2022/10/20 01:04:10;;;;;;;;;;;;;;;9.72;58.99;100452.84;4351497;32;34438;-83
2022/10/20 01:06:39;;;;;;;;;;;;;;;9.94;58.24;100454.59;4358805;32;34346;-83
2022/10/20 01:09:10;;;;;;;;;;;;;;;10.02;57.87;100457.19;4356587;32;34029;-83
2022/10/20 01:11:46;;;;;;;;;;;;;;;9.90;58.24;100455.44;4361958;32;34186;-83
2022/10/20 01:14:18;;;;;;;;;;;;;;;9.86;58.53;100452.84;4362067;32;34067;-87
2022/10/20 01:16:57;;;;;;;;;;;;;;;9.75;58.76;100456.28;4356945;32;33705;-82
2022/10/20 01:19:50;;;;;;;;;;;;;;;9.74;58.77;100457.16;4356808;32;32850;-83
2022/10/20 01:22:25;;;;;;;;;;;;;;;9.67;59.08;100452.81;4356645;32;34701;-85
2022/10/20 01:25:01;;;;;;;;;;;;;;;9.67;58.96;100452.81;4354037;32;33385;-84
2022/10/20 01:27:35;;;;;;;;;;;;;;;9.61;59.12;100450.19;4359045;32;34691;-85
2022/10/20 01:30:12;;;;;;;;;;;;;;;9.63;59.16;100451.06;4356260;32;32740;-87
2022/10/20 01:32:49;;;;;;;;;;;;;;;9.63;59.24;100453.66;4357990;32;35269;-83
2022/10/20 01:35:20;;;;;;;;;;;;;;;9.77;58.66;100461.50;4356892;32;34342;-85
2022/10/20 01:37:50;;;;;;;;;;;;;;;9.63;59.07;100450.22;4356641;32;34007;-86
2022/10/20 01:40:22;;;;;;;;;;;;;;;9.59;59.14;100463.16;4361220;32;33237;-82
2022/10/20 01:42:52;;;;;;;;;;;;;;;9.63;58.87;100464.03;4361476;32;33628;-83
2022/10/20 01:45:21;;;;;;;;;;;;;;;9.47;59.48;100470.00;4355441;32;34590;-84
2022/10/20 01:47:50;;;;;;;;;;;;;;;9.54;59.43;100461.41;4355734;32;33566;-83
2022/10/20 01:50:23;;;;;;;;;;;;;;;9.54;59.43;100461.41;4360307;32;33878;-86
2022/10/20 01:52:54;;;;;;;;;;;;;;;9.58;59.25;100461.41;4365342;32;33523;-83
2022/10/20 01:55:26;;;;;;;;;;;;;;;9.45;59.61;100459.66;4357715;32;35061;-81
2022/10/20 01:58:00;;;;;;;;;;;;;;;9.40;59.64;100459.66;4347375;32;34060;-86
2022/10/20 02:00:31;;;;;;;;;;;;;;;9.33;59.83;100460.47;4352326;32;34142;-83
2022/10/20 02:03:10;;;;;;;;;;;;;;;9.40;59.74;100463.97;4361349;32;34457;-83
2022/10/20 02:05:48;;;;;;;;;;;;;;;9.41;59.58;100460.50;4374415;32;33651;-84
2022/10/20 02:08:19;;;;;;;;;;;;;;;9.39;59.54;100462.22;4359570;32;33873;-83
2022/10/20 02:10:50;;;;;;;;;;;;;;;9.30;60.01;100457.87;4355773;32;33420;-82
2022/10/20 02:13:21;;;;;;;;;;;;;;;9.36;59.76;100467.41;4355233;32;34837;-85
2022/10/20 02:15:50;;;;;;;;;;;;;;;9.19;60.08;100462.12;4361900;32;34304;-83
2022/10/20 02:18:21;;;;;;;;;;;;;;;9.25;60.12;100459.56;4356042;32;34698;-82
2022/10/20 02:20:50;;;;;;;;;;;;;;;9.32;59.75;100469.09;4358787;32;33461;-85
2022/10/20 02:23:22;;;;;;;;;;;;;;;9.34;59.52;100467.37;4348712;32;34502;-83
2022/10/20 02:25:52;;;;;;;;;;;;;;;9.26;59.94;100470.81;4341344;33;34021;-84
2022/10/20 02:28:25;;;;;;;;;;;;;;;9.39;59.42;100468.25;4345347;33;33641;-82
2022/10/20 02:31:00;;;;;;;;;;;;;;;9.31;59.77;100466.50;4341281;33;32777;-84
2022/10/20 02:33:30;;;;;;;;;;;;;;;9.19;59.94;100470.75;4343832;33;33904;-83
2022/10/20 02:35:59;;;;;;;;;;;;;;;9.11;60.30;100476.75;4341487;33;34494;-83
2022/10/20 02:38:28;;;;;;;;;;;;;;;9.20;60.09;100474.22;4356718;32;34206;-85
2022/10/20 02:40:57;;;;;;;;;;;;;;;9.25;59.93;100466.47;4358162;32;33000;-84
2022/10/20 02:43:28;;;;;;;;;;;;;;;9.17;60.21;100471.63;4355174;32;34058;-84
2022/10/20 02:45:57;;;;;;;;;;;;;;;8.99;60.96;100474.97;4354919;32;34842;-85
2022/10/20 02:48:29;;;;;;;;;;;;;;;9.10;60.56;100477.63;4356170;32;33990;-83
2022/10/20 02:50:58;;;;;;;;;;;;;;;9.23;60.16;100479.44;4360481;32;33419;-84
2022/10/20 02:53:32;;;;;;;;;;;;;;;9.24;60.04;100478.56;4352687;32;32234;-86
2022/10/20 02:56:05;;;;;;;;;;;;;;;9.13;60.50;100477.63;4354263;32;34220;-83
2022/10/20 02:58:35;;;;;;;;;;;;;;;9.23;60.13;100487.19;4352412;32;33832;-85
2022/10/20 03:01:05;;;;;;;;;;;;;;;9.20;60.11;100487.16;4360902;32;34019;-82
2022/10/20 03:03:33;;;;;;;;;;;;;;;9.10;60.52;100488.81;4360042;32;34220;-83
2022/10/20 03:06:06;;;;;;;;;;;;;;;9.01;60.88;100487.91;4349464;32;33554;-83
2022/10/20 03:08:35;;;;;;;;;;;;;;;9.07;60.71;100493.12;4354235;32;33673;-83
2022/10/20 03:11:09;;;;;;;;;;;;;;;9.25;59.92;100497.53;4357596;32;31831;-84
2022/10/20 03:13:39;;;;;;;;;;;;;;;9.11;60.62;100489.69;4356963;32;34324;-85
2022/10/20 03:16:11;;;;;;;;;;;;;;;9.18;60.43;100488.88;4340953;32;34009;-84
2022/10/20 03:18:40;;;;;;;;;;;;;;;9.18;60.20;100492.34;4348409;32;33455;-85
2022/10/20 03:21:14;;;;;;;;;;;;;;;9.19;60.22;100493.19;4351330;32;33241;-86
2022/10/20 03:23:43;;;;;;;;;;;;;;;8.98;60.99;100494.78;4354989;32;33735;-85
2022/10/20 03:26:13;;;;;;;;;;;;;;;9.07;60.50;100503.50;4360064;32;34591;-83
2022/10/20 03:28:43;;;;;;;;;;;;;;;9.22;60.01;100489.75;4353108;32;33922;-84
2022/10/20 03:31:14;;;;;;;;;;;;;;;8.93;61.13;100504.25;4355629;32;33503;-85
2022/10/20 03:33:43;;;;;;;;;;;;;;;9.04;60.66;100498.31;4353991;32;34477;-86
2022/10/20 03:36:12;;;;;;;;;;;;;;;8.98;60.76;100497.38;4360641;32;34587;-81
2022/10/20 03:38:44;;;;;;;;;;;;;;;8.88;61.16;100498.19;4355099;32;33515;-83
2022/10/20 03:41:13;;;;;;;;;;;;;;;9.04;60.61;100506.06;4354698;32;33095;-83
2022/10/20 03:43:49;;;;;;;;;;;;;;;9.01;60.46;100508.63;4354624;32;34541;-86
2022/10/20 03:46:19;;;;;;;;;;;;;;;9.04;60.42;100508.66;4356153;32;33317;-83
2022/10/20 03:48:47;;;;;;;;;;;;;;;8.98;60.47;100505.16;4355231;32;33756;-85
2022/10/20 03:51:17;;;;;;;;;;;;;;;8.97;60.36;100506.00;4353947;32;33289;-85
2022/10/20 03:53:46;;;;;;;;;;;;;;;9.01;60.03;100506.88;4355613;32;34237;-83
2022/10/20 03:56:17;;;;;;;;;;;;;;;8.91;60.58;100507.69;4354082;32;36399;-87
2022/10/20 03:58:49;;;;;;;;;;;;;;;8.91;60.40;100508.56;4359436;32;33969;-84
2022/10/20 04:01:19;;;;;;;;;;;;;;;8.76;60.89;100508.44;4355251;32;33235;-83
2022/10/20 04:03:49;;;;;;;;;;;;;;;8.75;60.48;100507.59;4358070;32;34178;-86
2022/10/20 04:06:27;;;;;;;;;;;;;;;8.76;60.37;100505.88;4354631;32;33850;-85
2022/10/20 04:08:57;;;;;;;;;;;;;;;8.68;60.30;100504.94;4353032;32;35564;-83
2022/10/20 04:11:27;;;;;;;;;;;;;;;8.80;59.77;100515.37;4345891;33;32360;-83
2022/10/20 04:13:58;;;;;;;;;;;;;;;8.60;60.23;100506.59;4349815;32;34691;-85
2022/10/20 04:16:29;;;;;;;;;;;;;;;8.54;60.42;100505.69;4355559;32;34495;-84
2022/10/20 04:18:58;;;;;;;;;;;;;;;8.71;59.99;100511.00;4354565;32;34492;-84
2022/10/20 04:21:26;;;;;;;;;;;;;;;8.63;60.20;100501.47;4356907;32;33404;-86
2022/10/20 04:23:55;;;;;;;;;;;;;;;8.67;60.13;100504.06;4360715;32;34480;-86
2022/10/20 04:26:24;;;;;;;;;;;;;;;8.62;60.33;100500.59;4355044;32;34751;-85
2022/10/20 04:28:57;;;;;;;;;;;;;;;8.45;60.91;100503.03;4353903;32;34381;-85
2022/10/20 04:31:26;;;;;;;;;;;;;;;8.51;60.53;100503.09;4356115;32;33003;-83
2022/10/20 04:33:55;;;;;;;;;;;;;;;8.66;60.76;100504.06;4361731;32;34983;-83
2022/10/20 04:36:23;;;;;;;;;;;;;;;8.49;61.21;100501.34;4357196;32;33637;-85
2022/10/20 04:39:00;;;;;;;;;;;;;;;8.54;61.29;100505.69;4353332;32;33884;-83
2022/10/20 04:41:29;;;;;;;;;;;;;;;8.70;60.50;100500.66;4360780;32;32747;-84
2022/10/20 04:44:03;;;;;;;;;;;;;;;8.55;60.98;100503.97;4354843;32;32820;-87
2022/10/20 04:46:32;;;;;;;;;;;;;;;8.40;61.35;100496.97;4362485;32;34316;-83
2022/10/20 04:49:03;;;;;;;;;;;;;;;8.68;60.64;100494.59;4357002;32;33795;-83
2022/10/20 04:51:31;;;;;;;;;;;;;;;8.40;61.26;100496.09;4346118;32;33556;-83
2022/10/20 04:54:05;;;;;;;;;;;;;;;8.40;61.03;100499.53;4365931;32;33743;-85
2022/10/20 04:56:40;;;;;;;;;;;;;;;8.52;60.45;100504.81;4360196;32;34010;-84
2022/10/20 04:59:10;;;;;;;;;;;;;;;8.41;60.65;100511.63;4353268;32;33503;-86
2022/10/20 05:01:47;;;;;;;;;;;;;;;8.37;61.00;100511.56;4354244;32;32567;-82
2022/10/20 05:04:42;;;;;;;;;;;;;;;8.28;60.97;100509.75;4357156;32;34226;-84
2022/10/20 05:07:13;;;;;;;;;;;;;;;8.21;61.27;100516.56;4356129;32;34694;-85
2022/10/20 05:09:43;;;;;;;;;;;;;;;8.41;60.22;100516.81;4355345;32;33328;-84
2022/10/20 05:12:14;;;;;;;;;;;;;;;8.21;60.70;100518.28;4361973;32;33774;-83
2022/10/20 05:14:45;;;;;;;;;;;;;;;8.08;60.96;100522.47;4355626;32;34029;-84
2022/10/20 05:17:15;;;;;;;;;;;;;;;8.09;60.67;100522.50;4355015;32;33786;-87
2022/10/20 05:19:48;;;;;;;;;;;;;;;7.86;61.29;100535.16;4357087;32;34076;-83
2022/10/20 05:22:17;;;;;;;;;;;;;;;7.99;61.01;100541.31;4360568;32;32715;-84
2022/10/20 05:24:46;;;;;;;;;;;;;;;7.88;61.22;100536.06;4357189;32;33986;-84
2022/10/20 05:27:19;;;;;;;;;;;;;;;7.81;61.62;100541.13;4354625;32;33872;-84
2022/10/20 05:29:57;;;;;;;;;;;;;;;7.77;61.24;100542.78;4357670;32;34476;-83
2022/10/20 05:32:26;;;;;;;;;;;;;;;7.70;61.65;100549.59;4357965;32;32935;-85
2022/10/20 05:35:02;;;;;;;;;;;;;;;7.80;61.57;100554.88;4361632;32;34631;-82
2022/10/20 05:37:37;;;;;;;;;;;;;;;7.90;61.62;100554.12;4355352;32;34401;-84
2022/10/20 05:40:07;;;;;;;;;;;;;;;7.91;61.86;100561.91;4354270;32;33803;-86
2022/10/20 05:42:37;;;;;;;;;;;;;;;8.02;61.74;100569.81;4359562;32;33339;-85
2022/10/20 05:45:09;;;;;;;;;;;;;;;7.71;63.04;100576.31;4355651;32;34618;-83
2022/10/20 05:47:37;;;;;;;;;;;;;;;7.86;63.11;100573.06;4355113;32;33647;-85
2022/10/20 05:50:07;;;;;;;;;;;;;;;8.17;62.50;100574.28;4353435;32;33481;-83
2022/10/20 05:52:41;;;;;;;;;;;;;;;8.14;62.06;100581.97;4355215;32;33726;-82
2022/10/20 05:55:10;;;;;;;;;;;;;;;8.30;61.53;100591.62;4352953;32;33577;-84
2022/10/20 05:57:38;;;;;;;;;;;;;;;8.31;61.39;100582.16;4360887;32;34298;-83
2022/10/20 06:00:10;;;;;;;;;;;;;;;8.39;61.40;100590.00;4352565;32;34037;-83
2022/10/20 06:02:39;;;;;;;;;;;;;;;8.33;61.88;100586.47;4358303;32;33646;-83
2022/10/20 06:05:11;;;;;;;;;;;;;;;8.41;61.76;100586.63;4354964;32;33819;-82
2022/10/20 06:07:46;;;;;;;;;;;;;;;8.48;61.58;100596.16;4354232;32;33495;-85
2022/10/20 06:10:15;;;;;;;;;;;;;;;8.40;62.30;100591.75;4357223;32;33565;-83
2022/10/20 06:12:45;;;;;;;;;;;;;;;8.65;61.63;100598.03;4351961;32;33235;-83
2022/10/20 06:15:16;;;;;;;;;;;;;;;8.69;61.57;100602.38;4348585;32;33640;-85
2022/10/20 06:17:46;;;;;;;;;;;;;;;8.48;62.38;100601.34;4349014;32;34692;-83
2022/10/20 06:20:15;;;;;;;;;;;;;;;8.60;62.97;100605.78;4359441;32;33281;-83
2022/10/20 06:22:43;;;;;;;;;;;;;;;8.74;62.66;100613.63;4356652;32;34030;-85
2022/10/20 06:25:15;;;;;;;;;;;;;;;8.70;62.87;100615.34;4355277;32;33008;-83
2022/10/20 06:27:44;;;;;;;;;;;;;;;8.71;63.40;100614.47;4357035;32;35143;-86
2022/10/20 06:30:17;;;;;;;;;;;;;;;8.86;63.79;100621.50;4354404;32;33545;-83
2022/10/20 06:32:52;;;;;;;;;;;;;;;9.05;64.01;100625.12;4353974;32;33732;-83
2022/10/20 06:35:21;;;;;;;;;;;;;;;9.24;63.27;100631.31;4348174;32;33538;-83
2022/10/20 06:37:51;;;;;;;;;;;;;;;9.22;63.28;100629.56;4346888;32;34486;-84
2022/10/20 06:40:19;;;;;;;;;;;;;;;9.36;63.38;100623.63;4355236;32;34253;-85
2022/10/20 06:42:48;;;;;;;;;;;;;;;9.57;62.87;100624.63;4361121;32;33017;-85
2022/10/20 06:45:24;;;;;;;;;;;;;;;9.69;62.62;100635.06;4361280;32;32428;-85
2022/10/20 06:47:53;;;;;;;;;;;;;;;9.54;63.38;100632.38;4356206;32;34720;-87
2022/10/20 06:50:22;;;;;;;;;;;;;;;9.47;63.95;100633.19;4353504;32;34619;-86
2022/10/20 06:52:50;;;;;;;;;;;;;;;9.93;62.61;100638.62;4355035;32;32413;-84
2022/10/20 06:55:25;;;;;;;;;;;;;;;9.95;62.70;100649.88;4356062;32;33630;-87
2022/10/20 06:57:54;;;;;;;;;;;;;;;10.23;61.95;100643.94;4349272;32;33874;-85
2022/10/20 07:00:27;;;;;;;;;;;;;;;10.19;62.33;100641.31;4353609;32;33381;-85
2022/10/20 07:03:01;;;;;;;;;;;;;;;10.12;63.12;100645.59;4349246;32;32775;-83
2022/10/20 07:05:29;;;;;;;;;;;;;;;10.32;62.32;100645.75;4348555;32;33734;-83
2022/10/20 07:08:01;;;;;;;;;;;;;;;10.34;62.28;100644.03;4353495;32;33416;-86
2022/10/20 07:10:30;;;;;;;;;;;;;;;10.56;61.37;100647.53;4354991;32;33370;-84
2022/10/20 07:13:03;;;;;;;;;;;;;;;10.67;60.29;100651.00;4355106;32;34114;-83
2022/10/20 07:15:33;;;;;;;;;;;;;;;10.81;60.54;100660.56;4354767;32;34009;-83
2022/10/20 07:18:01;;;;;;;;;;;;;;;10.80;60.78;100651.00;4351924;32;33610;-84
2022/10/20 07:20:31;;;;;;;;;;;;;;;10.98;60.57;100655.38;4354063;32;34640;-85
2022/10/20 07:23:10;;;;;;;;;;;;;;;10.85;60.84;100660.56;4354658;32;32928;-85
2022/10/20 07:25:39;;;;;;;;;;;;;;;11.01;59.87;100658.81;4351072;32;34891;-84
2022/10/20 07:28:11;;;;;;;;;;;;;;;11.06;59.82;100657.09;4354167;32;33964;-83
2022/10/20 07:30:41;;;;;;;;;;;;;;;11.23;58.58;100662.28;4358245;32;34342;-87
2022/10/20 07:33:10;;;;;;;;;;;;;;;11.53;57.42;100664.00;4355870;32;34033;-84
2022/10/20 07:35:39;;;;;;;;;;;;;;;11.38;58.26;100668.34;4354395;32;34191;-84
2022/10/20 07:38:07;;;;;;;;;;;;;;;11.41;58.53;100660.56;4354512;32;36292;-84
2022/10/20 07:40:36;;;;;;;;;;;;;;;11.50;58.41;100661.41;4359869;32;34720;-83
2022/10/20 07:43:06;;;;;;;;;;;;;;;11.65;57.37;100659.66;4353899;32;33524;-86
2022/10/20 07:45:37;;;;;;;;;;;;;;;11.62;57.03;100665.72;4354399;32;34054;-85
2022/10/20 07:48:08;;;;;;;;;;;;;;;11.73;56.80;100669.16;4354371;32;34180;-84
2022/10/20 07:50:39;;;;;;;;;;;;;;;11.96;56.49;100668.28;4354345;32;34038;-83
2022/10/20 07:53:17;;;;;;;;;;;;;;;11.83;56.72;100675.19;4358762;32;32950;-84
2022/10/20 07:55:46;;;;;;;;;;;;;;;12.07;55.92;100673.44;4348193;32;34064;-87
2022/10/20 08:00:44;;;;;;;;;;;;;;;12.14;55.63;100673.41;4350881;32;35337;-83
2022/10/20 08:03:18;;;;;;;;;;;;;;;12.20;54.82;100669.91;4357490;32;33397;-86
2022/10/20 08:05:46;;;;;;;;;;;;;;;12.22;54.75;100667.31;4359816;32;34071;-87
2022/10/20 08:08:18;;;;;;;;;;;;;;;12.32;55.16;100675.09;4350375;32;33792;-84
2022/10/20 08:10:47;;;;;;;;;;;;;;;12.38;54.66;100671.56;4349193;32;33634;-85
2022/10/20 08:13:16;;;;;;;;;;;;;;;12.41;54.70;100673.28;4357284;32;33923;-85
2022/10/20 08:15:45;;;;;;;;;;;;;;;12.32;55.60;100672.47;4355842;32;34207;-88
2022/10/20 08:18:29;;;;;;;;;;;;;;;12.46;55.00;100674.13;4349971;32;34522;-85
2022/10/20 08:21:07;;;;;;;;;;;;;;;12.36;55.54;100683.72;4348749;32;34534;-83
2022/10/20 08:23:37;;;;;;;;;;;;;;;12.47;54.79;100679.34;4354440;32;31837;-85
2022/10/20 08:26:07;;;;;;;;;;;;;;;12.76;53.99;100679.16;4350854;32;33722;-88
2022/10/20 08:28:39;;;;;;;;;;;;;;;12.41;55.38;100688.91;4354681;32;33870;-85
2022/10/20 08:31:13;;;;;;;;;;;;;;;12.65;54.63;100696.59;4351415;32;33856;-86
2022/10/20 08:33:48;;;;;;;;;;;;;;;12.65;54.00;100683.56;4353928;32;32652;-85
2022/10/20 08:36:20;;;;;;;;;;;;;;;12.56;54.17;100684.50;4352665;32;33756;-87
2022/10/20 08:38:50;;;;;;;;;;;;;;;12.89;53.47;100681.69;4347681;32;35019;-85
2022/10/20 08:41:20;;;;;;;;;;;;;;;12.69;54.35;100680.09;4357166;32;33367;-85
2022/10/20 08:43:52;;;;;;;;;;;;;;;12.74;54.68;100690.47;4350178;32;33092;-84
2022/10/20 08:46:21;;;;;;;;;;;;;;;12.88;54.22;100683.44;4351287;32;33631;-88
2022/10/20 08:48:52;;;;;;;;;;;;;;;13.00;53.29;100679.88;4349339;32;34759;-86
2022/10/20 08:51:21;;;;;;;;;;;;;;;13.00;53.40;100690.31;4356680;32;34534;-88
2022/10/20 08:53:54;;;;;;;;;;;;;;;12.98;53.39;100682.50;4350510;32;32130;-85
2022/10/20 08:56:23;;;;;;;;;;;;;;;12.82;53.20;100689.53;4347889;32;33681;-86
2022/10/20 08:58:56;;;;;;;;;;;;;;;12.86;53.09;100687.78;4350638;32;33489;-88
2022/10/20 09:01:25;;;;;;;;;;;;;;;12.88;53.58;100688.66;4352878;32;33756;-84
2022/10/20 09:03:58;;;;;;;;;;;;;;;12.80;54.34;100685.22;4353517;32;33061;-87
2022/10/20 09:06:27;;;;;;;;;;;;;;;13.34;51.75;100677.91;4351166;32;33645;-84
2022/10/20 09:08:59;;;;;;;;;;;;;;;13.15;52.75;100678.91;4343212;32;35047;-84
2022/10/20 09:11:28;;;;;;;;;;;;;;;13.11;53.95;100680.66;4353741;32;33887;-86
2022/10/20 09:14:00;;;;;;;;;;;;;;;13.03;52.68;100679.84;4354663;32;32223;-84
2022/10/20 09:16:29;;;;;;;;;;;;;;;13.33;51.84;100677.91;4356704;32;34425;-86
2022/10/20 09:19:14;;;;;;;;;;;;;;;13.42;51.61;100672.62;4346200;32;33882;-87
2022/10/20 09:21:42;;;;;;;;;;;;;;;13.50;52.18;100675.16;4344701;32;34163;-87
2022/10/20 09:24:11;;;;;;;;;;;;;;;13.66;47.92;100677.59;4342737;33;33164;-84
2022/10/20 09:26:47;;;;;;;;;;;;;;;13.68;47.72;100679.34;4347494;33;33563;-84
2022/10/20 09:29:34;;;;;;;;;;;;;;;13.49;48.88;100679.50;4352958;32;33987;-86
2022/10/20 09:32:08;;;;;;;;;;;;;;;13.60;49.71;100685.50;4353251;32;33593;-88
2022/10/20 09:35:16;;;;;;;;;;;;;;;13.94;49.56;100687.75;4348743;32;32719;-84
2022/10/20 09:37:47;;;;;;;;;;;;;;;14.01;49.98;100683.31;4352200;32;34229;-87
2022/10/20 09:40:17;;;;;;;;;;;;;;;13.82;51.01;100687.84;4349834;32;34194;-85
2022/10/20 09:42:49;;;;;;;;;;;;;;;13.92;49.48;100689.50;4360601;32;34151;-88
2022/10/20 09:45:28;;;;;;;;;;;;;;;13.87;49.40;100691.31;4354197;32;32743;-84
2022/10/20 09:48:00;;;;;;;;;;;;;;;14.12;49.60;100686.66;4351421;32;33136;-87
2022/10/20 09:50:31;;;;;;;;;;;;;;;13.71;50.10;100687.97;4347180;32;34735;-85
2022/10/20 09:53:01;;;;;;;;;;;;;;;14.07;49.33;100684.09;4350084;32;33396;-87
2022/10/20 09:55:31;;;;;;;;;;;;;;;14.20;49.30;100686.56;4354285;32;33553;-87
2022/10/20 10:00:55;;;;;;;;;;;;;;;14.48;48.12;100682.72;4349506;32;34094;-86
2022/10/20 10:03:27;;;;;;;;;;;;;;;14.33;47.60;100680.31;4349933;32;33227;-85
2022/10/20 10:05:58;;;;;;;;;;;;;;;14.15;48.66;100686.62;4349931;32;32814;-84
2022/10/20 10:08:29;;;;;;;;;;;;;;;14.15;49.29;100685.75;4352045;32;34429;-84
2022/10/20 10:11:01;;;;;;;;;;;;;;;14.05;49.33;100691.09;4348948;32;33804;-84
2022/10/20 10:13:30;;;;;;;;;;;;;;;14.32;48.96;100689.03;4351426;32;33460;-85
2022/10/20 10:16:03;;;;;;;;;;;;;;;14.64;47.17;100686.03;4349332;32;33452;-84
2022/10/20 10:18:43;;;;;;;;;;;;;;;14.58;46.98;100685.25;4348667;32;33900;-84
2022/10/20 10:21:19;;;;;;;;;;;;;;;14.65;47.16;100681.66;4356051;32;34749;-87
2022/10/20 10:23:51;;;;;;;;;;;;;;;14.77;46.37;100675.41;4357168;32;33251;-87
2022/10/20 10:26:51;;;;;;;;;;;;;;;14.44;47.70;100664.50;4353039;32;33846;-84
2022/10/20 10:29:24;;;;;;;;;;;;;;;14.57;47.18;100666.12;4320639;33;34642;-87
2022/10/20 10:31:58;;;;;;;;;;;;;;;14.82;46.96;100661.38;4325117;33;33717;-86
2022/10/20 10:34:37;;;;;;;;;;;;;;;14.86;47.00;100659.56;4317554;33;33544;-86
2022/10/20 10:37:13;;;;;;;;;;;;;;;14.84;47.87;100650.94;4323852;33;32765;-84
2022/10/20 10:39:44;;;;;;;;;;;;;;;14.96;47.64;100655.97;4314148;33;33901;-86
2022/10/20 10:42:18;;;;;;;;;;;;;;;14.81;46.89;100657.06;4318566;33;34577;-85
2022/10/20 10:44:50;;;;;;;;;;;;;;;15.13;45.97;100651.31;4321045;33;34125;-84
2022/10/20 10:47:24;;;;;;;;;;;;;;;15.20;45.93;100649.47;4317799;33;33986;-88
2022/10/20 10:49:57;;;;;;;;;;;;;;;15.23;45.90;100641.56;4325088;33;33481;-85
2022/10/20 10:52:32;;;;;;;;;;;;;;;15.07;46.07;100632.25;4321075;33;34803;-84
2022/10/20 10:55:03;;;;;;;;;;;;;;;15.41;46.70;100634.28;4318572;33;33077;-88
2022/10/20 10:57:36;;;;;;;;;;;;;;;15.40;44.92;100633.44;4319498;33;33959;-86
2022/10/20 11:00:07;;;;;;;;;;;;;;;15.48;45.49;100633.28;4323637;33;33494;-86
2022/10/20 11:02:54;;;;;;;;;;;;;;;15.48;44.42;100630.66;4325577;33;34958;-86
2022/10/20 11:05:45;;;;;;;;;;;;;;;15.33;45.33;100621.34;4337659;32;33899;-85
2022/10/20 11:08:22;;;;;;;;;;;;;;;15.31;45.39;100613.53;4346390;32;33197;-84
2022/10/20 11:10:51;;;;;;;;;;;;;;;15.48;45.11;100608.00;4348890;32;34295;-86
2022/10/20 11:13:25;;;;;;;;;;;;;;;15.66;45.27;100605.94;4354488;32;34750;-85
2022/10/20 11:16:03;;;;;;;;;;;;;;;15.75;44.22;100608.38;4354185;32;33809;-85
2022/10/20 11:18:48;;;;;;;;;;;;;;;15.79;44.13;100603.06;4348708;32;32138;-84
2022/10/20 11:21:19;;;;;;;;;;;;;;;15.74;45.29;100596.22;4340004;32;33656;-86
2022/10/20 11:23:59;;;;;;;;;;;;;;;15.76;43.83;100594.44;4354785;32;34682;-85
2022/10/20 11:26:34;;;;;;;;;;;;;;;15.93;42.88;100594.09;4348258;32;34744;-85
2022/10/20 11:29:03;;;;;;;;;;;;;;;16.12;43.47;100589.31;4352661;32;33620;-85
2022/10/20 11:31:34;;;;;;;;;;;;;;;16.22;42.65;100593.47;4354221;32;33960;-84
2022/10/20 11:34:04;;;;;;;;;;;;;;;16.20;42.48;100587.38;4351740;32;34927;-87
2022/10/20 11:36:35;;;;;;;;;;;;;;;16.40;42.30;100573.84;4348199;32;33813;-86
2022/10/20 11:39:05;;;;;;;;;;;;;;;16.30;41.59;100569.72;4347582;32;33300;-85
2022/10/20 11:41:38;;;;;;;;;;;;;;;16.40;42.33;100572.06;4352869;32;33837;-88
2022/10/20 11:44:07;;;;;;;;;;;;;;;16.32;41.18;100562.69;4349915;32;34631;-84
2022/10/20 11:46:40;;;;;;;;;;;;;;;16.28;41.40;100568.87;4350694;32;34715;-88
2022/10/20 11:49:11;;;;;;;;;;;;;;;16.50;41.44;100570.09;4349738;32;34632;-88
2022/10/20 11:51:51;;;;;;;;;;;;;;;16.47;40.02;100564.94;4351368;32;33865;-85
2022/10/20 11:54:25;;;;;;;;;;;;;;;16.42;40.21;100561.56;4354544;32;33588;-84
2022/10/20 11:56:56;;;;;;;;;;;;;;;16.41;41.01;100557.25;4350355;32;34083;-88
2022/10/20 11:59:32;;;;;;;;;;;;;;;16.35;40.35;100557.38;4348565;32;32908;-84
2022/10/20 12:02:07;;;;;;;;;;;;;;;16.31;41.70;100559.22;4352840;32;34261;-85
2022/10/20 12:04:40;;;;;;;;;;;;;;;16.17;42.50;100550.81;4347941;32;34453;-85
2022/10/20 12:07:20;;;;;;;;;;;;;;;16.37;41.84;100551.22;4352675;32;33856;-84
2022/10/20 12:10:03;;;;;;;;;;;;;;;16.15;41.69;100553.47;4351152;32;32241;-86
2022/10/20 12:12:35;;;;;;;;;;;;;;;16.45;41.84;100550.16;4354839;32;32288;-86
2022/10/20 12:15:18;;;;;;;;;;;;;;;16.36;40.73;100548.66;4351040;32;33750;-85
2022/10/20 12:17:47;;;;;;;;;;;;;;;16.51;40.53;100547.41;4352692;32;33598;-87
2022/10/20 12:20:42;;;;;;;;;;;;;;;16.36;41.86;100546.88;4355808;32;32556;-85
2022/10/20 12:23:19;;;;;;;;;;;;;;;16.45;42.12;100542.31;4355737;32;33594;-86
2022/10/20 12:25:50;;;;;;;;;;;;;;;16.33;41.91;100540.84;4349100;32;33965;-85
2022/10/20 12:28:32;;;;;;;;;;;;;;;16.36;41.05;100538.16;4345782;32;33764;-86
2022/10/20 12:31:01;;;;;;;;;;;;;;;16.45;41.17;100530.06;4346533;32;33687;-85
2022/10/20 12:33:37;;;;;;;;;;;;;;;16.21;41.10;100534.12;4353964;32;34678;-84
2022/10/20 12:36:13;;;;;;;;;;;;;;;16.60;40.04;100536.72;4353747;32;34089;-86
2022/10/20 12:38:49;;;;;;;;;;;;;;;16.67;39.86;100526.94;4351284;32;33977;-86
2022/10/20 12:41:32;;;;;;;;;;;;;;;16.66;38.95;100518.22;4349814;32;33836;-85
2022/10/20 12:44:01;;;;;;;;;;;;;;;16.41;39.87;100520.59;4354942;32;33397;-84
2022/10/20 12:46:31;;;;;;;;;;;;;;;16.36;40.89;100509.38;4349250;32;33728;-86
2022/10/20 12:49:00;;;;;;;;;;;;;;;16.48;40.54;100510.81;4354715;32;33850;-85
2022/10/20 12:51:34;;;;;;;;;;;;;;;16.67;41.33;100512.06;4351763;32;33109;-86
2022/10/20 12:54:04;;;;;;;;;;;;;;;16.37;40.94;100505.84;4356756;32;34486;-85
2022/10/20 12:56:36;;;;;;;;;;;;;;;16.54;40.74;100498.41;4352782;32;33976;-88
2022/10/20 12:59:23;;;;;;;;;;;;;;;16.14;41.54;100496.78;4353657;32;34243;-87
2022/10/20 13:02:12;;;;;;;;;;;;;;;16.29;40.71;100498.16;4360288;32;32520;-84
2022/10/20 13:04:52;;;;;;;;;;;;;;;16.47;40.70;100491.63;4356992;32;34085;-88
2022/10/20 13:07:37;;;;;;;;;;;;;;;16.49;40.90;100488.97;4354558;32;33621;-88
2022/10/20 13:10:29;;;;;;;;;;;;;;;16.50;41.23;100494.16;4353256;32;33504;-85
2022/10/20 13:13:15;;;;;;;;;;;;;;;16.39;41.26;100488.34;4352070;32;34319;-85